Time;durP1;ratioP1;P1;durP2;ratioP2;P2;SDS_P1;SDS_P2;PMS_P1;PMS_P2;Temp;Humidity;BMP_temperature;BMP_pressure;BME280_temperature;BME280_humidity;BME280_pressure;Samples;Min_cycle;Max_cycle;Signal;HPM_P1;HPM_P2
2023/07/09 10:25:45;;;;;;;3.40;3.00;;;;;;;;;;5068763;27;20473;-79
2023/07/09 10:28:37;;;;;;;5.63;3.05;;;;;;;;;;5051691;28;20049;-79
2023/07/09 10:31:11;;;;;;;3.03;2.65;;;;;;;;;;5064928;28;20504;-79
2023/07/09 10:33:51;;;;;;;4.80;3.75;;;;;;;;;;5056222;28;20053;-79
2023/07/09 10:36:28;;;;;;;5.70;2.90;;;;;;;;;;5066596;22;20049;-78
2023/07/09 10:39:02;;;;;;;4.50;2.78;;;;;;;;;;5022375;28;20057;-77
2023/07/09 10:41:32;;;;;;;4.88;4.05;;;;;;;;;;5016239;28;20050;-77
2023/07/09 10:44:02;;;;;;;7.43;4.68;;;;;;;;;;5018339;28;20046;-77
2023/07/09 10:46:32;;;;;;;;;;;;;;;;;;5011792;28;20489;-77
2023/07/09 10:49:06;;;;;;;4.90;4.32;;;;;;;;;;5023497;28;19921;-77
2023/07/09 10:51:38;;;;;;;5.77;5.07;;;;;;;;;;5038926;28;20061;-77
2023/07/09 10:54:13;;;;;;;7.32;6.18;;;;;;;;;;5021513;28;20045;-77
2023/07/09 10:56:44;;;;;;;7.50;6.78;;;;;;;;;;4997989;28;20053;-77
2023/07/09 10:59:19;;;;;;;7.37;6.00;;;;;;;;;;5023328;28;20045;-77
2023/07/09 11:01:53;;;;;;;6.63;5.45;;;;;;;;;;5000827;28;20061;-77
2023/07/09 11:04:27;;;;;;;7.68;5.40;;;;;;;;;;4998462;28;20420;-77
2023/07/09 11:06:58;;;;;;;7.35;5.57;;;;;;;;;;5019888;28;20419;-77
2023/07/09 11:09:29;;;;;;;5.93;4.75;;;;;;;;;;5023307;28;20049;-77
2023/07/09 11:12:03;;;;;;;6.40;4.93;;;;;;;;;;5017557;28;20420;-77
2023/07/09 11:14:34;;;;;;;4.57;3.78;;;;;;;;;;5017439;28;20093;-77
2023/07/09 11:17:04;;;;;;;;;;;;;;;;;;5025737;28;20050;-78
2023/07/09 11:19:33;;;;;;;3.08;2.63;;;;;;;;;;5013318;28;19922;-77
2023/07/09 11:22:07;;;;;;;3.22;2.75;;;;;;;;;;4992854;28;20064;-77
2023/07/09 11:24:37;;;;;;;10.25;3.53;;;;;;;;;;5017641;28;20260;-77
2023/07/09 11:27:17;;;;;;;3.63;2.45;;;;;;;;;;5019305;28;20053;-77
2023/07/09 11:29:49;;;;;;;3.63;2.45;;;;;;;;;;4993179;28;20061;-77
2023/07/09 11:32:19;;;;;;;;;;;;;;;;;;5018316;28;20054;-77
2023/07/09 11:34:47;;;;;;;3.50;2.60;;;;;;;;;;5003255;28;19928;-77
2023/07/09 11:37:16;;;;;;;2.58;2.17;;;;;;;;;;5007644;28;20054;-77
2023/07/09 11:39:48;;;;;;;3.33;3.03;;;;;;;;;;4999094;28;20057;-77
2023/07/09 11:42:29;;;;;;;;;;;;;;;;;;4997459;28;20051;-77
2023/07/09 11:45:05;;;;;;;4.32;3.60;;;;;;;;;;5001168;28;19925;-77
2023/07/09 11:47:36;;;;;;;3.05;2.70;;;;;;;;;;4987477;28;20050;-77
2023/07/09 11:50:06;;;;;;;5.70;2.20;;;;;;;;;;4988209;28;20389;-77
2023/07/09 11:52:40;;;;;;;4.57;2.47;;;;;;;;;;5001586;28;20046;-77
2023/07/09 11:55:22;;;;;;;2.78;2.55;;;;;;;;;;5025786;28;20049;-77
2023/07/09 11:57:53;;;;;;;3.50;2.10;;;;;;;;;;4992100;28;20050;-78
2023/07/09 12:00:23;;;;;;;;;;;;;;;;;;5012186;28;20065;-78
2023/07/09 12:02:53;;;;;;;3.83;2.00;;;;;;;;;;4994702;28;19925;-78
2023/07/09 12:05:27;;;;;;;4.30;2.75;;;;;;;;;;5003090;28;20068;-78
2023/07/09 12:07:55;;;;;;;2.97;2.53;;;;;;;;;;5012891;28;20515;-78
2023/07/09 12:10:28;;;;;;;4.27;3.03;;;;;;;;;;5003789;28;20054;-78
2023/07/09 12:12:58;;;;;;;3.75;2.25;;;;;;;;;;5008925;28;20056;-78
2023/07/09 12:15:32;;;;;;;2.90;2.60;;;;;;;;;;5010606;28;20050;-78
2023/07/09 12:18:02;;;;;;;2.80;2.17;;;;;;;;;;4990135;28;20702;-78
2023/07/09 12:20:31;;;;;;;;;;;;;;;;;;4995473;28;20052;-78
2023/07/09 12:22:58;;;;;;;6.93;3.22;;;;;;;;;;5004615;28;19921;-78
2023/07/09 12:25:31;;;;;;;4.22;2.50;;;;;;;;;;5001386;28;20049;-78
2023/07/09 12:28:03;;;;;;;3.58;3.20;;;;;;;;;;5013107;28;20065;-78
2023/07/09 12:30:34;;;;;;;3.35;2.33;;;;;;;;;;5012157;28;20046;-78
2023/07/09 12:33:01;;;;;;;2.75;2.08;;;;;;;;;;5005370;28;20421;-78
2023/07/09 12:35:34;;;;;;;3.05;2.53;;;;;;;;;;5007068;28;20408;-78
2023/07/09 12:38:01;;;;;;;3.83;3.15;;;;;;;;;;5009296;28;20065;-78
2023/07/09 12:40:30;;;;;;;4.95;2.88;;;;;;;;;;4996077;28;20053;-78
2023/07/09 12:42:58;;;;;;;4.85;2.33;;;;;;;;;;4998279;28;20041;-78
2023/07/09 12:45:27;;;;;;;2.55;1.98;;;;;;;;;;5003051;28;20046;-78
2023/07/09 12:47:59;;;;;;;3.83;3.00;;;;;;;;;;5008780;28;20038;-78
2023/07/09 12:50:32;;;;;;;6.70;2.55;;;;;;;;;;4992806;28;20060;-78
2023/07/09 12:53:03;;;;;;;6.60;2.55;;;;;;;;;;5003385;28;20041;-78
2023/07/09 12:55:40;;;;;;;4.55;2.67;;;;;;;;;;5011613;28;20050;-78
2023/07/09 12:58:11;;;;;;;3.90;2.85;;;;;;;;;;5012030;28;20046;-79
2023/07/09 13:00:40;;;;;;;6.28;3.63;;;;;;;;;;4993197;28;20057;-79
2023/07/09 13:03:14;;;;;;;3.97;2.60;;;;;;;;;;4988140;28;20049;-79
2023/07/09 13:05:53;;;;;;;3.78;2.20;;;;;;;;;;4995864;28;20046;-79
2023/07/09 13:08:25;;;;;;;3.47;2.58;;;;;;;;;;5000246;28;20073;-79
2023/07/09 13:10:54;;;;;;;3.30;2.58;;;;;;;;;;5018851;28;20061;-79
2023/07/09 13:13:28;;;;;;;4.15;2.80;;;;;;;;;;5019362;28;20046;-79
2023/07/09 13:16:02;;;;;;;6.72;3.05;;;;;;;;;;5010384;28;20042;-79
2023/07/09 13:18:31;;;;;;;;;;;;;;;;;;5009737;28;20058;-79
2023/07/09 13:20:59;;;;;;;2.90;2.22;;;;;;;;;;5000643;28;19921;-79
2023/07/09 13:23:27;;;;;;;2.67;2.40;;;;;;;;;;4998237;28;20486;-79
2023/07/09 13:25:58;;;;;;;4.10;2.50;;;;;;;;;;4996553;28;20579;-79
2023/07/09 13:28:29;;;;;;;5.93;3.35;;;;;;;;;;5007274;28;20058;-79
2023/07/09 13:31:02;;;;;;;5.22;2.40;;;;;;;;;;5010839;28;20304;-79
2023/07/09 13:33:29;;;;;;;12.02;2.65;;;;;;;;;;5000221;28;20050;-79
2023/07/09 13:35:56;;;;;;;3.22;2.78;;;;;;;;;;5010597;28;20038;-79
2023/07/09 13:38:26;;;;;;;5.68;2.70;;;;;;;;;;5020540;28;20072;-79
2023/07/09 13:40:58;;;;;;;6.35;2.65;;;;;;;;;;5002722;28;20058;-79
2023/07/09 13:43:30;;;;;;;4.00;2.45;;;;;;;;;;5001046;28;20060;-79
2023/07/09 13:45:57;;;;;;;6.22;2.97;;;;;;;;;;5001895;28;20412;-79
2023/07/09 13:48:29;;;;;;;5.30;2.85;;;;;;;;;;4994036;28;20448;-79
2023/07/09 13:50:59;;;;;;;5.45;2.70;;;;;;;;;;5003081;28;20053;-79
2023/07/09 13:53:29;;;;;;;4.78;2.78;;;;;;;;;;5019307;28;20050;-79
2023/07/09 13:55:56;;;;;;;3.20;2.83;;;;;;;;;;4995815;28;20050;-79
2023/07/09 13:58:26;;;;;;;6.53;3.20;;;;;;;;;;4996756;28;20535;-79
2023/07/09 14:00:56;;;;;;;;;;;;;;;;;;5000044;28;20068;-79
2023/07/09 14:03:25;;;;;;;6.95;2.95;;;;;;;;;;5002663;28;19929;-79
2023/07/09 14:05:54;;;;;;;5.95;3.85;;;;;;;;;;4988199;28;20056;-79
2023/07/09 14:08:24;;;;;;;4.38;2.72;;;;;;;;;;5001905;28;20049;-79
2023/07/09 14:10:55;;;;;;;4.40;3.00;;;;;;;;;;4995011;28;20053;-79
2023/07/09 14:13:25;;;;;;;4.72;2.50;;;;;;;;;;5015293;28;20057;-79
2023/07/09 14:15:52;;;;;;;7.28;3.58;;;;;;;;;;5004549;28;20054;-79
2023/07/09 14:18:22;;;;;;;8.15;3.45;;;;;;;;;;5021612;28;20046;-79
2023/07/09 14:20:50;;;;;;;5.60;2.95;;;;;;;;;;4988443;28;20404;-78
2023/07/09 14:23:23;;;;;;;3.65;2.88;;;;;;;;;;5003668;28;20060;-78
2023/07/09 14:25:50;;;;;;;5.28;3.00;;;;;;;;;;4987852;28;20058;-78
2023/07/09 14:28:21;;;;;;;4.68;2.55;;;;;;;;;;4984586;28;20057;-78
2023/07/09 14:30:50;;;;;;;3.70;2.85;;;;;;;;;;5000241;28;20411;-78
2023/07/09 14:33:22;;;;;;;3.83;3.00;;;;;;;;;;5006371;28;20061;-78
2023/07/09 14:35:51;;;;;;;;;;;;;;;;;;4989792;28;20053;-79
2023/07/09 14:38:22;;;;;;;3.88;2.60;;;;;;;;;;5000159;28;19928;-79
2023/07/09 14:40:52;;;;;;;5.17;3.30;;;;;;;;;;5000405;28;20046;-79
2023/07/09 14:43:19;;;;;;;5.95;2.97;;;;;;;;;;4990081;28;20050;-79
2023/07/09 14:45:48;;;;;;;5.97;3.15;;;;;;;;;;4998187;28;20047;-79
2023/07/09 14:48:19;;;;;;;4.23;3.07;;;;;;;;;;5004392;28;20053;-79
2023/07/09 14:50:47;;;;;;;9.88;3.75;;;;;;;;;;4989308;28;20296;-79
2023/07/09 14:53:27;;;;;;;4.35;2.55;;;;;;;;;;5011086;28;20400;-78
2023/07/09 14:55:56;;;;;;;5.07;2.85;;;;;;;;;;5013447;28;20042;-78
2023/07/09 14:58:24;;;;;;;3.35;2.97;;;;;;;;;;4986911;28;20065;-79
2023/07/09 15:00:51;;;;;;;4.38;3.10;;;;;;;;;;5002553;28;20042;-79
2023/07/09 15:03:21;;;;;;;3.05;2.60;;;;;;;;;;4986147;28;20041;-79
2023/07/09 15:05:51;;;;;;;4.07;2.92;;;;;;;;;;4983414;28;20046;-78
2023/07/09 15:08:27;;;;;;;6.45;3.42;;;;;;;;;;5020074;28;20072;-78
2023/07/09 15:10:56;;;;;;;4.43;2.67;;;;;;;;;;5006482;28;20057;-78
2023/07/09 15:13:30;;;;;;;3.25;2.65;;;;;;;;;;4989832;28;20054;-78
2023/07/09 15:15:57;;;;;;;7.50;3.42;;;;;;;;;;4990141;28;20046;-78
2023/07/09 15:18:24;;;;;;;5.97;3.08;;;;;;;;;;5006765;28;20057;-78
2023/07/09 15:20:54;;;;;;;5.15;3.28;;;;;;;;;;4993689;28;20058;-78
2023/07/09 15:23:22;;;;;;;3.53;2.58;;;;;;;;;;4987566;28;20060;-79
2023/07/09 15:25:52;;;;;;;6.63;2.92;;;;;;;;;;4991816;28;20056;-78
2023/07/09 15:28:24;;;;;;;4.60;3.28;;;;;;;;;;4991288;28;20064;-78
2023/07/09 15:30:51;;;;;;;3.20;2.58;;;;;;;;;;4982970;28;20061;-78
2023/07/09 15:33:20;;;;;;;3.22;2.83;;;;;;;;;;5000654;28;20050;-78
2023/07/09 15:35:50;;;;;;;7.72;3.67;;;;;;;;;;4995585;28;20504;-78
2023/07/09 15:38:26;;;;;;;;;;;;;;;;;;5011102;28;20056;-78
2023/07/09 15:40:53;;;;;;;3.88;2.90;;;;;;;;;;5010649;28;19936;-78
2023/07/09 15:43:22;;;;;;;5.07;3.08;;;;;;;;;;5011810;28;20068;-78
2023/07/09 15:45:51;;;;;;;4.50;2.78;;;;;;;;;;4994738;28;20407;-78
2023/07/09 15:48:23;;;;;;;4.07;2.35;;;;;;;;;;4989205;28;20080;-78
2023/07/09 15:50:52;;;;;;;;;;;;;;;;;;5014651;28;20057;-78
2023/07/09 15:53:21;;;;;;;5.55;2.40;;;;;;;;;;4996540;28;19925;-78
2023/07/09 15:55:54;;;;;;;7.50;2.72;;;;;;;;;;4996964;28;20049;-78
2023/07/09 15:58:26;;;;;;;5.15;2.53;;;;;;;;;;4999955;28;20057;-81
2023/07/09 16:00:53;;;;;;;;;;;;;;;;;;5019088;28;20520;-77
2023/07/09 16:03:21;;;;;;;5.53;2.17;;;;;;;;;;4989169;28;19937;-77
2023/07/09 16:05:48;;;;;;;4.22;2.25;;;;;;;;;;5000938;28;20053;-79
2023/07/09 16:08:16;;;;;;;3.72;3.15;;;;;;;;;;5016755;28;20046;-79
2023/07/09 16:10:45;;;;;;;3.50;2.85;;;;;;;;;;5016674;28;20050;-78
2023/07/09 16:13:19;;;;;;;5.15;3.10;;;;;;;;;;5014055;28;20500;-78
2023/07/09 16:15:47;;;;;;;10.52;3.53;;;;;;;;;;4992443;28;20054;-78
2023/07/09 16:18:17;;;;;;;8.45;2.95;;;;;;;;;;5013319;28;20050;-78
2023/07/09 16:20:51;;;;;;;5.68;3.25;;;;;;;;;;5017111;28;20060;-78
2023/07/09 16:23:22;;;;;;;8.63;3.65;;;;;;;;;;5006544;28;20049;-78
2023/07/09 16:25:50;;;;;;;6.78;3.35;;;;;;;;;;4999035;28;20065;-78
2023/07/09 16:28:19;;;;;;;7.78;3.67;;;;;;;;;;5010540;28;20411;-78
2023/07/09 16:30:51;;;;;;;;;;;;;;;;;;5015808;28;20061;-78
2023/07/09 16:33:23;;;;;;;5.13;2.83;;;;;;;;;;5014438;28;19921;-78
2023/07/09 16:35:51;;;;;;;5.70;2.33;;;;;;;;;;4997441;28;20057;-78
2023/07/09 16:38:20;;;;;;;6.93;3.17;;;;;;;;;;4999652;28;20392;-78
2023/07/09 16:40:50;;;;;;;4.13;3.22;;;;;;;;;;5001124;28;20420;-78
2023/07/09 16:43:21;;;;;;;12.77;3.08;;;;;;;;;;5000282;28;20054;-78
2023/07/09 16:45:49;;;;;;;3.35;2.53;;;;;;;;;;4994652;28;20050;-78
2023/07/09 16:48:18;;;;;;;4.07;3.15;;;;;;;;;;4997877;28;20045;-78
2023/07/09 16:50:46;;;;;;;4.25;3.33;;;;;;;;;;4980428;28;20526;-78
2023/07/09 16:53:18;;;;;;;2.90;2.22;;;;;;;;;;5011006;28;20501;-78
2023/07/09 16:55:46;;;;;;;5.30;3.17;;;;;;;;;;5010743;28;20049;-78
2023/07/09 16:58:21;;;;;;;3.47;2.67;;;;;;;;;;4992927;28;20054;-78
2023/07/09 17:00:49;;;;;;;3.78;2.58;;;;;;;;;;5012962;28;20511;-78
2023/07/09 17:03:18;;;;;;;3.78;2.75;;;;;;;;;;5013026;28;20045;-78
2023/07/09 17:05:47;;;;;;;5.80;3.00;;;;;;;;;;5015709;28;20346;-78
2023/07/09 17:08:15;;;;;;;8.68;2.92;;;;;;;;;;5009221;28;20046;-78
2023/07/09 17:10:44;;;;;;;4.78;3.45;;;;;;;;;;5015750;28;20641;-78
2023/07/09 17:13:23;;;;;;;4.95;3.13;;;;;;;;;;5008150;28;20045;-78
2023/07/09 17:15:56;;;;;;;5.18;3.00;;;;;;;;;;5013878;28;20046;-78
2023/07/09 17:18:29;;;;;;;5.50;3.50;;;;;;;;;;5010990;28;20046;-78
2023/07/09 17:21:00;;;;;;;4.60;2.95;;;;;;;;;;5010365;28;20054;-78
2023/07/09 17:23:29;;;;;;;4.13;2.85;;;;;;;;;;4997847;28;20060;-78
2023/07/09 17:26:01;;;;;;;5.78;3.20;;;;;;;;;;5007311;28;20057;-79
2023/07/09 17:28:31;;;;;;;4.00;2.35;;;;;;;;;;5014110;28;20068;-78
2023/07/09 17:30:58;;;;;;;11.10;2.97;;;;;;;;;;5012576;28;20053;-78
2023/07/09 17:33:32;;;;;;;;;;;;;;;;;;5008508;28;20052;-78
2023/07/09 17:36:01;;;;;;;3.85;3.22;;;;;;;;;;5000775;28;19929;-78
2023/07/09 17:38:32;;;;;;;3.28;2.63;;;;;;;;;;5000672;28;20034;-78
2023/07/09 17:41:05;;;;;;;4.60;2.65;;;;;;;;;;5010158;28;20049;-78
2023/07/09 17:43:35;;;;;;;6.40;3.13;;;;;;;;;;4984541;28;20320;-78
2023/07/09 17:46:05;;;;;;;5.03;3.15;;;;;;;;;;5000335;28;20324;-78
2023/07/09 17:48:36;;;;;;;7.47;3.95;;;;;;;;;;4997587;28;20053;-78
2023/07/09 17:51:06;;;;;;;6.15;3.42;;;;;;;;;;5003535;28;20054;-78
2023/07/09 17:53:35;;;;;;;4.15;3.00;;;;;;;;;;4985643;28;20045;-78
2023/07/09 17:56:19;;;;;;;5.13;3.70;;;;;;;;;;5006312;28;20060;-78
2023/07/09 17:58:51;;;;;;;6.68;3.75;;;;;;;;;;4998855;28;20061;-78
2023/07/09 18:01:21;;;;;;;11.98;3.80;;;;;;;;;;5009485;28;20049;-78
2023/07/09 18:03:50;;;;;;;5.57;3.70;;;;;;;;;;5004335;28;20058;-78
2023/07/09 18:06:18;;;;;;;4.70;3.35;;;;;;;;;;4992603;28;20045;-78
2023/07/09 18:08:47;;;;;;;5.13;3.10;;;;;;;;;;5011143;28;20041;-78
2023/07/09 18:11:29;;;;;;;4.18;2.80;;;;;;;;;;4984004;28;20049;-78
2023/07/09 18:14:00;;;;;;;6.15;4.00;;;;;;;;;;5023158;28;20057;-78
2023/07/09 18:16:27;;;;;;;4.68;3.42;;;;;;;;;;5018061;28;20054;-78
2023/07/09 18:19:03;;;;;;;6.47;3.33;;;;;;;;;;4996350;28;20042;-79
2023/07/09 18:21:31;;;;;;;6.60;3.10;;;;;;;;;;4997444;28;20050;-78
2023/07/09 18:23:58;;;;;;;4.63;4.13;;;;;;;;;;5013137;28;20041;-78
2023/07/09 18:26:30;;;;;;;5.07;3.42;;;;;;;;;;5005440;28;20057;-78
2023/07/09 18:28:58;;;;;;;6.05;3.10;;;;;;;;;;4992221;28;20038;-78
2023/07/09 18:31:25;;;;;;;5.20;3.35;;;;;;;;;;5015141;28;20053;-78
2023/07/09 18:33:52;;;;;;;4.78;3.10;;;;;;;;;;5013060;28;20048;-78
2023/07/09 18:36:24;;;;;;;6.28;3.28;;;;;;;;;;5010711;28;20046;-78
2023/07/09 18:38:57;;;;;;;3.22;2.83;;;;;;;;;;5015011;28;20328;-78
2023/07/09 18:41:26;;;;;;;5.93;3.47;;;;;;;;;;4999235;28;20062;-78
2023/07/09 18:43:53;;;;;;;6.57;4.10;;;;;;;;;;4997135;28;20057;-78
2023/07/09 18:46:23;;;;;;;5.18;3.25;;;;;;;;;;5003945;28;20060;-78
2023/07/09 18:48:50;;;;;;;5.57;3.75;;;;;;;;;;5007592;28;20057;-78
2023/07/09 18:51:20;;;;;;;5.07;4.28;;;;;;;;;;4994246;28;20057;-78
2023/07/09 18:53:48;;;;;;;4.35;3.47;;;;;;;;;;4992613;28;20061;-78
2023/07/09 18:56:18;;;;;;;6.40;4.22;;;;;;;;;;5006858;28;20400;-78
2023/07/09 18:58:46;;;;;;;6.78;4.18;;;;;;;;;;5013226;28;20053;-78
2023/07/09 19:01:20;;;;;;;4.72;3.40;;;;;;;;;;4995011;28;20061;-78
2023/07/09 19:03:48;;;;;;;5.57;3.67;;;;;;;;;;5015657;28;20045;-78
2023/07/09 19:06:20;;;;;;;5.88;4.13;;;;;;;;;;5005581;28;20060;-78
2023/07/09 19:08:51;;;;;;;4.55;3.80;;;;;;;;;;5008100;28;20670;-79
2023/07/09 19:11:22;;;;;;;4.75;4.25;;;;;;;;;;5006739;28;20340;-78
2023/07/09 19:13:49;;;;;;;4.03;3.20;;;;;;;;;;5019384;28;20065;-78
2023/07/09 19:16:25;;;;;;;13.23;4.82;;;;;;;;;;5006159;28;20064;-78
2023/07/09 19:18:52;;;;;;;6.40;4.95;;;;;;;;;;5004579;28;20527;-78
2023/07/09 19:21:20;;;;;;;6.20;3.88;;;;;;;;;;5019700;28;20045;-78
2023/07/09 19:23:51;;;;;;;8.23;4.53;;;;;;;;;;5016955;28;20045;-78
2023/07/09 19:26:21;;;;;;;4.40;3.72;;;;;;;;;;5001892;28;20057;-78
2023/07/09 19:28:53;;;;;;;12.27;3.95;;;;;;;;;;5012060;28;20080;-79
2023/07/09 19:31:23;;;;;;;5.32;3.80;;;;;;;;;;5007609;28;20054;-78
2023/07/09 19:33:50;;;;;;;4.80;3.53;;;;;;;;;;5013116;28;20054;-78
2023/07/09 19:36:23;;;;;;;6.43;4.40;;;;;;;;;;5002869;28;20048;-78
2023/07/09 19:38:56;;;;;;;5.30;4.22;;;;;;;;;;4995487;28;20061;-78
2023/07/09 19:41:25;;;;;;;6.13;3.80;;;;;;;;;;5000212;28;20393;-78
2023/07/09 19:43:52;;;;;;;3.75;3.22;;;;;;;;;;5016489;28;20046;-78
2023/07/09 19:46:21;;;;;;;5.22;3.65;;;;;;;;;;5006858;28;20062;-78
2023/07/09 19:48:53;;;;;;;4.13;3.72;;;;;;;;;;5018326;28;20038;-79
2023/07/09 19:51:20;;;;;;;9.45;4.68;;;;;;;;;;5016649;28;20062;-78
2023/07/09 19:53:48;;;;;;;5.30;3.95;;;;;;;;;;4993146;28;20050;-78
2023/07/09 19:56:18;;;;;;;4.25;3.75;;;;;;;;;;4998023;28;20050;-78
2023/07/09 19:58:46;;;;;;;4.88;4.22;;;;;;;;;;5015711;28;20061;-78
2023/07/09 20:01:13;;;;;;;4.78;3.90;;;;;;;;;;5013045;28;20058;-78
2023/07/09 20:03:43;;;;;;;4.28;3.88;;;;;;;;;;5012715;28;20073;-78
2023/07/09 20:06:11;;;;;;;8.32;5.45;;;;;;;;;;5010093;28;20432;-78
2023/07/09 20:08:38;;;;;;;9.40;4.55;;;;;;;;;;5003619;28;20049;-78
2023/07/09 20:11:08;;;;;;;6.50;3.45;;;;;;;;;;5020371;28;20057;-78
2023/07/09 20:13:41;;;;;;;5.45;4.00;;;;;;;;;;4993370;28;20059;-78
2023/07/09 20:16:22;;;;;;;7.80;4.75;;;;;;;;;;5018874;28;20054;-78
2023/07/09 20:18:49;;;;;;;8.20;4.03;;;;;;;;;;4983679;28;20217;-78
2023/07/09 20:21:21;;;;;;;10.07;4.80;;;;;;;;;;4992256;28;20053;-78
2023/07/09 20:23:51;;;;;;;5.88;4.53;;;;;;;;;;4996504;28;20065;-78
2023/07/09 20:26:18;;;;;;;5.63;4.38;;;;;;;;;;5008207;28;20054;-78
2023/07/09 20:28:52;;;;;;;7.57;3.90;;;;;;;;;;5016570;28;20053;-77
2023/07/09 20:31:26;;;;;;;4.40;3.55;;;;;;;;;;5008941;28;20053;-77
2023/07/09 20:34:00;;;;;;;8.25;5.90;;;;;;;;;;5007354;28;20060;-77
2023/07/09 20:36:30;;;;;;;4.88;3.85;;;;;;;;;;4989388;28;20443;-77
2023/07/09 20:38:59;;;;;;;6.43;4.10;;;;;;;;;;5002406;28;20053;-77
2023/07/09 20:41:32;;;;;;;9.60;4.65;;;;;;;;;;4989996;28;20061;-77
2023/07/09 20:44:04;;;;;;;4.97;4.45;;;;;;;;;;5009834;28;20060;-77
2023/07/09 20:46:37;;;;;;;8.60;4.72;;;;;;;;;;5011979;28;20417;-77
2023/07/09 20:49:22;;;;;;;8.15;4.13;;;;;;;;;;5010842;28;20053;-77
2023/07/09 20:51:52;;;;;;;8.48;4.57;;;;;;;;;;5009400;28;20443;-77
2023/07/09 20:54:22;;;;;;;4.68;3.90;;;;;;;;;;5007601;28;20049;-77
2023/07/09 20:56:54;;;;;;;5.32;3.92;;;;;;;;;;5001976;28;20056;-77
2023/07/09 20:59:23;;;;;;;5.00;4.13;;;;;;;;;;4993617;28;20423;-77
2023/07/09 21:02:02;;;;;;;6.80;4.20;;;;;;;;;;4998871;28;20050;-77
2023/07/09 21:04:33;;;;;;;4.50;3.65;;;;;;;;;;4998485;28;20054;-77
2023/07/09 21:07:11;;;;;;;7.88;5.38;;;;;;;;;;4987817;28;20436;-77
2023/07/09 21:09:39;;;;;;;6.65;4.47;;;;;;;;;;5000164;28;20046;-77
2023/07/09 21:12:10;;;;;;;6.80;4.03;;;;;;;;;;4988065;28;20049;-77
2023/07/09 21:14:39;;;;;;;9.00;4.15;;;;;;;;;;4987165;28;20068;-77
2023/07/09 21:17:14;;;;;;;7.95;4.45;;;;;;;;;;4990701;28;20050;-77
2023/07/09 21:19:47;;;;;;;6.75;5.32;;;;;;;;;;5006403;28;20528;-77
2023/07/09 21:22:17;;;;;;;7.65;4.03;;;;;;;;;;5004594;28;20053;-77
2023/07/09 21:24:50;;;;;;;5.88;3.90;;;;;;;;;;5006820;28;20060;-77
2023/07/09 21:27:17;;;;;;;6.40;3.40;;;;;;;;;;5010060;28;20042;-77
2023/07/09 21:29:50;;;;;;;4.47;4.07;;;;;;;;;;4997151;28;20049;-77
2023/07/09 21:32:24;;;;;;;6.40;4.35;;;;;;;;;;4998766;28;20309;-77
2023/07/09 21:34:55;;;;;;;7.47;3.60;;;;;;;;;;4983201;28;20081;-77
2023/07/09 21:37:25;;;;;;;5.15;4.07;;;;;;;;;;5001167;28;20050;-77
2023/07/09 21:39:52;;;;;;;4.35;3.30;;;;;;;;;;5003255;28;20057;-77
2023/07/09 21:42:21;;;;;;;4.40;4.07;;;;;;;;;;4987608;28;20057;-77
2023/07/09 21:44:55;;;;;;;5.00;3.83;;;;;;;;;;5018264;28;20060;-78
2023/07/09 21:47:25;;;;;;;12.05;4.05;;;;;;;;;;5007215;28;20524;-78
2023/07/09 21:49:52;;;;;;;6.07;4.80;;;;;;;;;;5007557;28;20046;-77
2023/07/09 21:52:23;;;;;;;5.07;3.83;;;;;;;;;;5021917;28;20708;-77
2023/07/09 21:54:55;;;;;;;6.15;3.75;;;;;;;;;;4986465;28;20500;-77
2023/07/09 21:57:24;;;;;;;7.20;4.80;;;;;;;;;;5004109;28;20065;-77
2023/07/09 21:59:51;;;;;;;6.40;4.55;;;;;;;;;;5001572;28;20051;-77
2023/07/09 22:02:27;;;;;;;4.00;3.60;;;;;;;;;;4983454;28;20073;-77
2023/07/09 22:04:54;;;;;;;6.57;4.82;;;;;;;;;;5007455;28;20072;-77
2023/07/09 22:07:23;;;;;;;7.60;4.70;;;;;;;;;;4989566;28;20049;-77
2023/07/09 22:09:58;;;;;;;11.35;4.53;;;;;;;;;;5005737;28;20049;-77
2023/07/09 22:12:29;;;;;;;7.43;4.80;;;;;;;;;;5002191;28;20073;-77
2023/07/09 22:14:59;;;;;;;6.47;4.60;;;;;;;;;;4992639;28;20068;-77
2023/07/09 22:17:27;;;;;;;4.20;3.80;;;;;;;;;;4979316;28;20058;-77
2023/07/09 22:19:59;;;;;;;5.78;4.43;;;;;;;;;;4998692;28;20630;-77
2023/07/09 22:22:29;;;;;;;7.33;3.93;;;;;;;;;;4978506;28;20065;-77
2023/07/09 22:24:57;;;;;;;8.63;4.55;;;;;;;;;;4996876;28;20046;-77
2023/07/09 22:27:24;;;;;;;6.50;4.53;;;;;;;;;;5008443;28;20309;-77
2023/07/09 22:29:57;;;;;;;6.63;4.68;;;;;;;;;;4997365;28;20046;-77
2023/07/09 22:32:30;;;;;;;6.63;4.45;;;;;;;;;;5003776;28;20064;-77
2023/07/09 22:35:01;;;;;;;6.07;4.50;;;;;;;;;;4985856;28;20054;-77
2023/07/09 22:37:29;;;;;;;8.43;4.07;;;;;;;;;;5013049;22;20508;-76
2023/07/09 22:40:00;;;;;;;8.52;3.95;;;;;;;;;;5017314;28;20045;-76
2023/07/09 22:42:30;;;;;;;10.10;3.80;;;;;;;;;;5005864;28;20057;-76
2023/07/09 22:45:00;;;;;;;6.25;4.20;;;;;;;;;;5008667;28;20050;-76
2023/07/09 22:47:31;;;;;;;9.43;4.40;;;;;;;;;;5010375;28;20068;-76
2023/07/09 22:49:58;;;;;;;4.95;4.45;;;;;;;;;;4992429;28;20053;-76
2023/07/09 22:52:28;;;;;;;5.95;4.22;;;;;;;;;;5006532;28;20050;-76
2023/07/09 22:55:14;;;;;;;5.65;4.40;;;;;;;;;;4989189;28;20504;-76
2023/07/09 22:57:41;;;;;;;8.80;4.40;;;;;;;;;;4989023;28;20061;-76
2023/07/09 23:00:10;;;;;;;4.50;3.60;;;;;;;;;;4990177;28;20049;-76
2023/07/09 23:02:39;;;;;;;5.07;4.05;;;;;;;;;;4990404;28;20042;-77
2023/07/09 23:05:10;;;;;;;7.10;4.40;;;;;;;;;;5016112;28;20519;-77
2023/07/09 23:07:37;;;;;;;4.90;4.40;;;;;;;;;;4991540;28;20050;-77
2023/07/09 23:10:05;;;;;;;10.60;4.82;;;;;;;;;;4990200;28;20046;-77
2023/07/09 23:12:34;;;;;;;5.68;4.32;;;;;;;;;;4990862;28;20061;-77
2023/07/09 23:15:01;;;;;;;5.68;4.22;;;;;;;;;;5006578;28;20053;-76
2023/07/09 23:17:30;;;;;;;4.75;4.25;;;;;;;;;;4992313;28;20531;-76
2023/07/09 23:19:59;;;;;;;4.70;4.30;;;;;;;;;;5008346;28;20053;-76
2023/07/09 23:22:26;;;;;;;6.05;4.32;;;;;;;;;;4991439;28;20063;-76
2023/07/09 23:24:56;;;;;;;5.18;4.68;;;;;;;;;;5007537;28;20476;-76
2023/07/09 23:27:23;;;;;;;7.25;4.38;;;;;;;;;;4990797;28;20058;-76
2023/07/09 23:29:52;;;;;;;7.28;4.50;;;;;;;;;;5010022;28;20057;-76
2023/07/09 23:32:22;;;;;;;6.68;4.35;;;;;;;;;;4993268;28;20516;-76
2023/07/09 23:34:52;;;;;;;6.07;5.00;;;;;;;;;;4993806;28;20057;-76
2023/07/09 23:37:20;;;;;;;4.95;4.15;;;;;;;;;;5009482;28;20049;-76
2023/07/09 23:39:53;;;;;;;5.97;4.43;;;;;;;;;;4992386;28;20076;-76
2023/07/09 23:42:23;;;;;;;4.32;3.92;;;;;;;;;;5011323;28;20061;-76
2023/07/09 23:44:55;;;;;;;4.63;4.17;;;;;;;;;;5010188;28;20072;-76
2023/07/09 23:47:22;;;;;;;5.07;4.07;;;;;;;;;;4992921;28;20301;-76
2023/07/09 23:49:50;;;;;;;5.95;3.80;;;;;;;;;;4993993;28;20057;-76
2023/07/09 23:52:17;;;;;;;7.78;4.70;;;;;;;;;;5011485;28;20050;-76
2023/07/09 23:54:48;;;;;;;7.53;4.82;;;;;;;;;;5010162;28;20057;-76
2023/07/09 23:57:17;;;;;;;7.30;4.65;;;;;;;;;;5006897;28;20045;-76
2023/07/09 23:59:49;;;;;;;4.70;4.13;;;;;;;;;;5025010;28;20060;-76
